sensor_id;sensor_type;location;lat;lon;timestamp;pressure;altitude;pressure_sealevel;temperature;humidity
21706;BME280;11014;53.076;18.208;2022-10-31T00:00:49;101612.94;;;15.97;73.39
21706;BME280;11014;53.076;18.208;2022-10-31T00:03:37;101618.84;;;15.94;73.50
21706;BME280;11014;53.076;18.208;2022-10-31T00:06:05;101612.28;;;15.90;73.65
21706;BME280;11014;53.076;18.208;2022-10-31T00:08:34;101618.19;;;15.87;73.77
21706;BME280;11014;53.076;18.208;2022-10-31T00:11:08;101618.75;;;15.89;73.63
21706;BME280;11014;53.076;18.208;2022-10-31T00:13:38;101608.97;;;15.88;73.75
21706;BME280;11014;53.076;18.208;2022-10-31T00:16:13;101613.25;;;15.84;73.66
21706;BME280;11014;53.076;18.208;2022-10-31T00:18:42;101612.75;;;15.87;73.70
21706;BME280;11014;53.076;18.208;2022-10-31T00:21:10;101617.69;;;15.90;73.51
21706;BME280;11014;53.076;18.208;2022-10-31T00:23:39;101615.56;;;15.92;73.64
21706;BME280;11014;53.076;18.208;2022-10-31T00:26:08;101606.34;;;15.93;73.53
21706;BME280;11014;53.076;18.208;2022-10-31T00:28:36;101612.59;;;15.93;73.39
21706;BME280;11014;53.076;18.208;2022-10-31T00:31:07;101617.19;;;15.93;73.17
21706;BME280;11014;53.076;18.208;2022-10-31T00:33:38;101612.59;;;15.93;73.18
21706;BME280;11014;53.076;18.208;2022-10-31T00:36:10;101608.25;;;15.92;73.35
21706;BME280;11014;53.076;18.208;2022-10-31T00:38:41;101609.69;;;15.83;73.28
21706;BME280;11014;53.076;18.208;2022-10-31T00:41:11;101612.53;;;15.77;73.31
21706;BME280;11014;53.076;18.208;2022-10-31T00:43:42;101611.13;;;15.74;73.41
21706;BME280;11014;53.076;18.208;2022-10-31T00:46:12;101613.28;;;15.72;73.33
21706;BME280;11014;53.076;18.208;2022-10-31T00:48:42;101606.81;;;15.73;73.44
21706;BME280;11014;53.076;18.208;2022-10-31T00:51:10;101620.56;;;15.72;73.64
21706;BME280;11014;53.076;18.208;2022-10-31T00:53:40;101619.41;;;15.68;73.80
21706;BME280;11014;53.076;18.208;2022-10-31T00:56:09;101622.69;;;15.70;73.60
21706;BME280;11014;53.076;18.208;2022-10-31T00:58:38;101626.00;;;15.72;73.47
21706;BME280;11014;53.076;18.208;2022-10-31T01:01:07;101624.47;;;15.64;73.79
21706;BME280;11014;53.076;18.208;2022-10-31T01:03:36;101614.38;;;15.60;73.88
21706;BME280;11014;53.076;18.208;2022-10-31T01:06:12;101618.03;;;15.54;73.85
21706;BME280;11014;53.076;18.208;2022-10-31T01:08:42;101621.56;;;15.54;73.81
21706;BME280;11014;53.076;18.208;2022-10-31T01:11:19;101618.03;;;15.54;73.97
21706;BME280;11014;53.076;18.208;2022-10-31T01:13:53;101626.75;;;15.56;73.86
21706;BME280;11014;53.076;18.208;2022-10-31T01:16:25;101625.44;;;15.58;74.22
21706;BME280;11014;53.076;18.208;2022-10-31T01:18:54;101620.38;;;15.62;74.01
21706;BME280;11014;53.076;18.208;2022-10-31T01:21:25;101626.25;;;15.59;73.78
21706;BME280;11014;53.076;18.208;2022-10-31T01:23:56;101626.13;;;15.65;73.70
21706;BME280;11014;53.076;18.208;2022-10-31T01:26:27;101622.50;;;15.60;73.77
21706;BME280;11014;53.076;18.208;2022-10-31T01:28:59;101626.75;;;15.56;73.80
21706;BME280;11014;53.076;18.208;2022-10-31T01:31:31;101628.41;;;15.57;73.84
21706;BME280;11014;53.076;18.208;2022-10-31T01:34:00;101622.63;;;15.53;74.00
21706;BME280;11014;53.076;18.208;2022-10-31T01:36:31;101616.63;;;15.51;74.02
21706;BME280;11014;53.076;18.208;2022-10-31T01:39:03;101619.56;;;15.50;74.06
21706;BME280;11014;53.076;18.208;2022-10-31T01:41:34;101626.63;;;15.51;74.29
21706;BME280;11014;53.076;18.208;2022-10-31T01:49:38;101617.53;;;15.45;74.23
21706;BME280;11014;53.076;18.208;2022-10-31T01:52:18;101619.44;;;15.44;74.33
21706;BME280;11014;53.076;18.208;2022-10-31T01:55:14;101618.50;;;15.51;74.14
21706;BME280;11014;53.076;18.208;2022-10-31T01:57:47;101617.22;;;15.53;74.32
21706;BME280;11014;53.076;18.208;2022-10-31T02:00:34;101612.63;;;15.54;73.96
21706;BME280;11014;53.076;18.208;2022-10-31T02:03:03;101618.63;;;15.56;74.01
21706;BME280;11014;53.076;18.208;2022-10-31T02:05:32;101619.09;;;15.53;73.73
21706;BME280;11014;53.076;18.208;2022-10-31T02:08:13;101619.09;;;15.53;73.98
21706;BME280;11014;53.076;18.208;2022-10-31T02:10:43;101621.31;;;15.56;73.70
21706;BME280;11014;53.076;18.208;2022-10-31T02:13:12;101622.97;;;15.57;73.93
21706;BME280;11014;53.076;18.208;2022-10-31T02:15:50;101624.03;;;15.56;73.63
21706;BME280;11014;53.076;18.208;2022-10-31T02:18:20;101628.97;;;15.59;73.97
21706;BME280;11014;53.076;18.208;2022-10-31T02:21:04;101625.78;;;15.62;73.84
21706;BME280;11014;53.076;18.208;2022-10-31T02:23:44;101629.53;;;15.61;73.52
21706;BME280;11014;53.076;18.208;2022-10-31T02:37:22;101641.09;;;15.44;73.57
21706;BME280;11014;53.076;18.208;2022-10-31T02:40:03;101636.50;;;15.45;73.96
21706;BME280;11014;53.076;18.208;2022-10-31T02:43:08;101636.88;;;15.49;74.02
21706;BME280;11014;53.076;18.208;2022-10-31T02:48:26;101643.59;;;15.46;73.65
21706;BME280;11014;53.076;18.208;2022-10-31T02:51:00;101642.16;;;15.43;73.72
21706;BME280;11014;53.076;18.208;2022-10-31T02:53:34;101637.56;;;15.44;73.96
21706;BME280;11014;53.076;18.208;2022-10-31T02:56:12;101633.56;;;15.47;74.04
21706;BME280;11014;53.076;18.208;2022-10-31T02:58:55;101646.88;;;15.48;74.25
21706;BME280;11014;53.076;18.208;2022-10-31T03:06:51;101647.94;;;15.59;74.14
21706;BME280;11014;53.076;18.208;2022-10-31T03:09:34;101637.66;;;15.61;74.08
21706;BME280;11014;53.076;18.208;2022-10-31T03:12:05;101644.72;;;15.73;73.97
21706;BME280;11014;53.076;18.208;2022-10-31T03:14:43;101646.72;;;15.66;73.70
21706;BME280;11014;53.076;18.208;2022-10-31T03:17:28;101653.69;;;15.62;73.83
21706;BME280;11014;53.076;18.208;2022-10-31T03:20:04;101646.28;;;15.58;73.86
21706;BME280;11014;53.076;18.208;2022-10-31T03:22:35;101652.66;;;15.52;74.17
21706;BME280;11014;53.076;18.208;2022-10-31T03:25:07;101655.38;;;15.52;74.07
21706;BME280;11014;53.076;18.208;2022-10-31T03:27:39;101653.25;;;15.54;74.11
21706;BME280;11014;53.076;18.208;2022-10-31T03:30:09;101669.59;;;15.59;74.15
21706;BME280;11014;53.076;18.208;2022-10-31T03:32:55;101655.47;;;15.57;74.35
21706;BME280;11014;53.076;18.208;2022-10-31T03:35:27;101661.47;;;15.59;74.04
21706;BME280;11014;53.076;18.208;2022-10-31T03:38:05;101664.66;;;15.56;74.17
21706;BME280;11014;53.076;18.208;2022-10-31T03:40:37;101668.91;;;15.52;74.19
21706;BME280;11014;53.076;18.208;2022-10-31T03:43:16;101675.84;;;15.48;74.66
21706;BME280;11014;53.076;18.208;2022-10-31T03:45:49;101663.97;;;15.49;74.83
21706;BME280;11014;53.076;18.208;2022-10-31T03:48:19;101662.56;;;15.46;74.78
21706;BME280;11014;53.076;18.208;2022-10-31T03:50:58;101664.78;;;15.49;74.93
21706;BME280;11014;53.076;18.208;2022-10-31T03:53:36;101663.50;;;15.52;75.10
21706;BME280;11014;53.076;18.208;2022-10-31T03:56:12;101666.31;;;15.57;75.22
21706;BME280;11014;53.076;18.208;2022-10-31T03:58:57;101675.84;;;15.59;74.73
21706;BME280;11014;53.076;18.208;2022-10-31T04:01:31;101672.88;;;15.61;74.64
21706;BME280;11014;53.076;18.208;2022-10-31T04:04:02;101669.13;;;15.62;74.61
21706;BME280;11014;53.076;18.208;2022-10-31T04:06:33;101668.28;;;15.61;74.86
21706;BME280;11014;53.076;18.208;2022-10-31T04:09:05;101656.53;;;15.56;74.51
21706;BME280;11014;53.076;18.208;2022-10-31T04:11:45;101654.75;;;15.50;74.93
21706;BME280;11014;53.076;18.208;2022-10-31T04:14:52;101658.09;;;15.52;74.98
21706;BME280;11014;53.076;18.208;2022-10-31T04:17:27;101658.28;;;15.50;74.97
21706;BME280;11014;53.076;18.208;2022-10-31T04:20:16;101658.09;;;15.52;74.88
21706;BME280;11014;53.076;18.208;2022-10-31T04:22:45;101666.31;;;15.57;74.99
21706;BME280;11014;53.076;18.208;2022-10-31T04:25:14;101664.66;;;15.56;74.83
21706;BME280;11014;53.076;18.208;2022-10-31T04:27:43;101649.94;;;15.52;74.79
21706;BME280;11014;53.076;18.208;2022-10-31T04:30:12;101655.84;;;15.49;74.83
21706;BME280;11014;53.076;18.208;2022-10-31T04:32:43;101661.25;;;15.49;75.11
21706;BME280;11014;53.076;18.208;2022-10-31T04:35:12;101653.56;;;15.46;75.00
21706;BME280;11014;53.076;18.208;2022-10-31T04:37:41;101659.47;;;15.42;75.16
21706;BME280;11014;53.076;18.208;2022-10-31T04:40:10;101663.69;;;15.38;75.25
21706;BME280;11014;53.076;18.208;2022-10-31T04:42:39;101658.53;;;15.37;74.93
21706;BME280;11014;53.076;18.208;2022-10-31T04:45:08;101664.66;;;15.32;75.08
21706;BME280;11014;53.076;18.208;2022-10-31T04:47:37;101664.50;;;15.27;75.22
21706;BME280;11014;53.076;18.208;2022-10-31T04:50:06;101662.41;;;15.29;75.46
21706;BME280;11014;53.076;18.208;2022-10-31T04:52:39;101664.66;;;15.32;75.59
21706;BME280;11014;53.076;18.208;2022-10-31T04:55:10;101668.53;;;15.36;75.44
21706;BME280;11014;53.076;18.208;2022-10-31T04:57:49;101667.00;;;15.40;75.35
21706;BME280;11014;53.076;18.208;2022-10-31T05:00:21;101663.00;;;15.43;75.02
21706;BME280;11014;53.076;18.208;2022-10-31T05:02:53;101659.59;;;15.48;75.32
21706;BME280;11014;53.076;18.208;2022-10-31T05:05:26;101663.13;;;15.48;74.90
21706;BME280;11014;53.076;18.208;2022-10-31T05:07:56;101659.38;;;15.49;74.75
21706;BME280;11014;53.076;18.208;2022-10-31T05:10:28;101662.09;;;15.49;74.75
21706;BME280;11014;53.076;18.208;2022-10-31T05:13:05;101661.84;;;15.51;74.70
21706;BME280;11014;53.076;18.208;2022-10-31T05:15:52;101670.53;;;15.53;74.60
21706;BME280;11014;53.076;18.208;2022-10-31T05:18:55;101671.00;;;15.50;74.52
21706;BME280;11014;53.076;18.208;2022-10-31T05:21:44;101675.38;;;15.51;74.52
21706;BME280;11014;53.076;18.208;2022-10-31T05:24:14;101675.00;;;15.47;74.32
21706;BME280;11014;53.076;18.208;2022-10-31T05:26:49;101668.16;;;15.44;74.69
21706;BME280;11014;53.076;18.208;2022-10-31T05:29:18;101675.50;;;15.32;75.19
21706;BME280;11014;53.076;18.208;2022-10-31T05:31:46;101670.88;;;15.44;75.16
21706;BME280;11014;53.076;18.208;2022-10-31T05:34:41;101683.13;;;15.47;74.70
21706;BME280;11014;53.076;18.208;2022-10-31T05:37:35;101679.38;;;15.48;74.38
21706;BME280;11014;53.076;18.208;2022-10-31T05:40:06;101683.34;;;15.46;74.65
21706;BME280;11014;53.076;18.208;2022-10-31T05:42:38;101689.38;;;15.48;74.39
21706;BME280;11014;53.076;18.208;2022-10-31T05:45:09;101687.25;;;15.50;74.68
21706;BME280;11014;53.076;18.208;2022-10-31T05:48:00;101690.56;;;15.52;74.70
21706;BME280;11014;53.076;18.208;2022-10-31T05:50:49;101691.16;;;15.54;74.54
21706;BME280;11014;53.076;18.208;2022-10-31T05:53:18;101692.19;;;15.53;74.41
21706;BME280;11014;53.076;18.208;2022-10-31T05:55:49;101691.16;;;15.54;74.73
21706;BME280;11014;53.076;18.208;2022-10-31T05:58:20;101694.34;;;15.51;74.68
21706;BME280;11014;53.076;18.208;2022-10-31T06:01:00;101691.25;;;15.47;74.83
21706;BME280;11014;53.076;18.208;2022-10-31T06:03:29;101699.59;;;15.46;74.64
21706;BME280;11014;53.076;18.208;2022-10-31T06:06:02;101700.28;;;15.41;74.81
21706;BME280;11014;53.076;18.208;2022-10-31T06:08:36;101705.97;;;15.39;75.08
21706;BME280;11014;53.076;18.208;2022-10-31T06:11:08;101710.31;;;15.40;74.89
21706;BME280;11014;53.076;18.208;2022-10-31T06:14:06;101704.44;;;15.43;74.78
21706;BME280;11014;53.076;18.208;2022-10-31T06:16:43;101709.38;;;15.47;75.10
21706;BME280;11014;53.076;18.208;2022-10-31T06:19:35;101717.66;;;15.52;75.00
21706;BME280;11014;53.076;18.208;2022-10-31T06:22:04;101725.16;;;15.50;74.74
21706;BME280;11014;53.076;18.208;2022-10-31T06:24:36;101716.81;;;15.51;74.86
21706;BME280;11014;53.076;18.208;2022-10-31T06:27:18;101717.50;;;15.58;75.08
21706;BME280;11014;53.076;18.208;2022-10-31T06:29:47;101718.91;;;15.61;75.01
21706;BME280;11014;53.076;18.208;2022-10-31T06:32:29;101730.13;;;15.64;74.74
21706;BME280;11014;53.076;18.208;2022-10-31T06:34:58;101729.88;;;15.66;74.62
21706;BME280;11014;53.076;18.208;2022-10-31T06:37:27;101720.00;;;15.60;75.09
21706;BME280;11014;53.076;18.208;2022-10-31T06:40:02;101716.81;;;15.63;75.00
21706;BME280;11014;53.076;18.208;2022-10-31T06:42:39;101719.75;;;15.73;74.83
21706;BME280;11014;53.076;18.208;2022-10-31T06:45:09;101719.84;;;15.78;74.61
21706;BME280;11014;53.076;18.208;2022-10-31T06:48:13;101723.13;;;15.80;74.48
21706;BME280;11014;53.076;18.208;2022-10-31T06:51:09;101729.16;;;15.82;74.70
21706;BME280;11014;53.076;18.208;2022-10-31T06:53:41;101735.06;;;15.79;74.54
21706;BME280;11014;53.076;18.208;2022-10-31T06:56:14;101733.41;;;15.78;74.25
21706;BME280;11014;53.076;18.208;2022-10-31T06:58:48;101741.28;;;15.79;74.28
21706;BME280;11014;53.076;18.208;2022-10-31T07:01:23;101747.78;;;15.78;74.23
21706;BME280;11014;53.076;18.208;2022-10-31T07:08:52;101746.38;;;15.76;74.46
21706;BME280;11014;53.076;18.208;2022-10-31T07:12:42;101753.09;;;15.73;74.47
21706;BME280;11014;53.076;18.208;2022-10-31T07:15:17;101758.72;;;15.72;74.92
21706;BME280;11014;53.076;18.208;2022-10-31T07:17:46;101757.19;;;15.76;75.01
21706;BME280;11014;53.076;18.208;2022-10-31T07:20:15;101746.69;;;15.79;75.21
21706;BME280;11014;53.076;18.208;2022-10-31T07:27:14;101757.16;;;15.99;74.61
21706;BME280;11014;53.076;18.208;2022-10-31T07:35:11;101760.94;;;15.98;74.67
21706;BME280;11014;53.076;18.208;2022-10-31T07:38:55;101771.06;;;15.91;74.85
21706;BME280;11014;53.076;18.208;2022-10-31T07:46:30;101784.72;;;15.96;75.13
21706;BME280;11014;53.076;18.208;2022-10-31T07:50:07;101781.31;;;16.00;75.46
21706;BME280;11014;53.076;18.208;2022-10-31T07:54:09;101792.16;;;16.00;75.09
21706;BME280;11014;53.076;18.208;2022-10-31T08:02:18;101783.41;;;15.98;75.17
21706;BME280;11014;53.076;18.208;2022-10-31T08:04:50;101789.34;;;15.95;75.02
21706;BME280;11014;53.076;18.208;2022-10-31T08:07:38;101794.41;;;15.92;75.21
21706;BME280;11014;53.076;18.208;2022-10-31T08:10:20;101787.69;;;15.94;75.35
21706;BME280;11014;53.076;18.208;2022-10-31T08:13:12;101798.38;;;16.01;75.77
21706;BME280;11014;53.076;18.208;2022-10-31T08:16:10;101796.28;;;16.03;75.76
21706;BME280;11014;53.076;18.208;2022-10-31T08:18:54;101796.28;;;16.03;75.52
21706;BME280;11014;53.076;18.208;2022-10-31T08:21:27;101792.16;;;16.00;75.69
21706;BME280;11014;53.076;18.208;2022-10-31T08:23:56;101796.75;;;16.00;75.86
21706;BME280;11014;53.076;18.208;2022-10-31T08:26:26;101794.16;;;16.05;76.02
21706;BME280;11014;53.076;18.208;2022-10-31T08:28:56;101799.09;;;16.08;75.91
21706;BME280;11014;53.076;18.208;2022-10-31T08:31:32;101793.56;;;16.15;76.08
21706;BME280;11014;53.076;18.208;2022-10-31T08:34:24;101803.19;;;16.22;76.10
21706;BME280;11014;53.076;18.208;2022-10-31T08:37:12;101799.41;;;16.23;75.84
21706;BME280;11014;53.076;18.208;2022-10-31T08:39:46;101802.72;;;16.25;75.93
21706;BME280;11014;53.076;18.208;2022-10-31T08:42:15;101805.53;;;16.30;76.02
21706;BME280;11014;53.076;18.208;2022-10-31T08:44:43;101804.47;;;16.31;76.07
21706;BME280;11014;53.076;18.208;2022-10-31T08:47:16;101804.47;;;16.31;75.91
21706;BME280;11014;53.076;18.208;2022-10-31T08:49:45;101802.47;;;16.27;75.69
21706;BME280;11014;53.076;18.208;2022-10-31T08:52:40;101798.72;;;16.28;76.01
21706;BME280;11014;53.076;18.208;2022-10-31T08:55:29;101795.28;;;16.32;75.70
21706;BME280;11014;53.076;18.208;2022-10-31T08:58:09;101791.50;;;16.33;75.78
21706;BME280;11014;53.076;18.208;2022-10-31T09:00:45;101791.59;;;16.38;75.74
21706;BME280;11014;53.076;18.208;2022-10-31T09:03:20;101797.69;;;16.45;75.89
21706;BME280;11014;53.076;18.208;2022-10-31T09:05:50;101796.16;;;16.49;76.15
21706;BME280;11014;53.076;18.208;2022-10-31T09:08:19;101802.28;;;16.56;75.91
21706;BME280;11014;53.076;18.208;2022-10-31T09:10:48;101801.47;;;16.56;75.90
21706;BME280;11014;53.076;18.208;2022-10-31T09:13:27;101807.50;;;16.58;75.61
21706;BME280;11014;53.076;18.208;2022-10-31T09:16:14;101800.97;;;16.59;75.76
21706;BME280;11014;53.076;18.208;2022-10-31T09:18:44;101801.34;;;16.63;75.87
21706;BME280;11014;53.076;18.208;2022-10-31T09:21:16;101815.47;;;16.65;75.94
21706;BME280;11014;53.076;18.208;2022-10-31T09:23:47;101799.91;;;16.72;76.24
21706;BME280;11014;53.076;18.208;2022-10-31T09:26:15;101812.59;;;16.83;76.33
21706;BME280;11014;53.076;18.208;2022-10-31T09:28:54;101817.03;;;16.89;75.60
21706;BME280;11014;53.076;18.208;2022-10-31T09:31:24;101818.19;;;16.93;75.82
21706;BME280;11014;53.076;18.208;2022-10-31T09:34:03;101818.84;;;17.00;75.46
21706;BME280;11014;53.076;18.208;2022-10-31T09:36:38;101820.25;;;17.02;75.44
21706;BME280;11014;53.076;18.208;2022-10-31T09:39:11;101819.47;;;17.02;75.32
21706;BME280;11014;53.076;18.208;2022-10-31T09:42:01;101829.50;;;17.01;75.37
21706;BME280;11014;53.076;18.208;2022-10-31T09:47:39;101836.22;;;16.99;74.71
21706;BME280;11014;53.076;18.208;2022-10-31T09:51:12;101833.50;;;16.99;74.62
21706;BME280;11014;53.076;18.208;2022-10-31T09:54:16;101823.81;;;17.03;74.96
21706;BME280;11014;53.076;18.208;2022-10-31T09:57:15;101824.00;;;17.13;75.39
21706;BME280;11014;53.076;18.208;2022-10-31T09:59:48;101827.03;;;17.16;75.08
21706;BME280;11014;53.076;18.208;2022-10-31T10:02:35;101832.72;;;17.15;74.96
21706;BME280;11014;53.076;18.208;2022-10-31T10:05:10;101830.56;;;17.17;75.06
21706;BME280;11014;53.076;18.208;2022-10-31T10:19:57;101826.53;;;17.19;75.28
21706;BME280;11014;53.076;18.208;2022-10-31T10:25:28;101831.34;;;17.29;75.44
21706;BME280;11014;53.076;18.208;2022-10-31T10:28:29;101830.03;;;17.32;75.49
21706;BME280;11014;53.076;18.208;2022-10-31T10:31:17;101824.41;;;17.38;75.46
21706;BME280;11014;53.076;18.208;2022-10-31T10:34:14;101826.97;;;17.45;75.48
21706;BME280;11014;53.076;18.208;2022-10-31T10:36:54;101825.66;;;17.47;74.84
21706;BME280;11014;53.076;18.208;2022-10-31T10:39:30;101822.03;;;17.42;74.69
21706;BME280;11014;53.076;18.208;2022-10-31T10:42:11;101819.31;;;17.42;75.14
21706;BME280;11014;53.076;18.208;2022-10-31T10:45:00;101826.97;;;17.45;75.04
21706;BME280;11014;53.076;18.208;2022-10-31T10:48:05;101816.88;;;17.40;75.08
21706;BME280;11014;53.076;18.208;2022-10-31T10:50:41;101820.38;;;17.41;74.92
21706;BME280;11014;53.076;18.208;2022-10-31T10:56:30;101828.94;;;17.33;74.97
21706;BME280;11014;53.076;18.208;2022-10-31T10:59:03;101828.38;;;17.31;74.82
21706;BME280;11014;53.076;18.208;2022-10-31T11:01:31;101832.50;;;17.33;75.37
21706;BME280;11014;53.076;18.208;2022-10-31T11:04:02;101821.41;;;17.35;75.39
21706;BME280;11014;53.076;18.208;2022-10-31T11:06:32;101824.91;;;17.35;75.14
21706;BME280;11014;53.076;18.208;2022-10-31T11:09:08;101816.75;;;17.35;75.29
21706;BME280;11014;53.076;18.208;2022-10-31T11:11:40;101814.88;;;17.36;75.29
21706;BME280;11014;53.076;18.208;2022-10-31T11:14:13;101823.34;;;17.39;75.41
21706;BME280;11014;53.076;18.208;2022-10-31T11:16:47;101818.28;;;17.43;75.30
21706;BME280;11014;53.076;18.208;2022-10-31T11:19:19;101812.84;;;17.43;75.18
21706;BME280;11014;53.076;18.208;2022-10-31T11:21:48;101811.50;;;17.45;75.27
21706;BME280;11014;53.076;18.208;2022-10-31T11:24:22;101813.75;;;17.48;75.46
21706;BME280;11014;53.076;18.208;2022-10-31T11:27:10;101808.16;;;17.55;75.54
21706;BME280;11014;53.076;18.208;2022-10-31T11:29:42;101809.06;;;17.60;75.28
21706;BME280;11014;53.076;18.208;2022-10-31T11:32:24;101808.34;;;17.65;75.84
21706;BME280;11014;53.076;18.208;2022-10-31T11:34:57;101806.75;;;17.69;75.56
21706;BME280;11014;53.076;18.208;2022-10-31T11:37:28;101800.56;;;17.73;75.36
21706;BME280;11014;53.076;18.208;2022-10-31T11:40:06;101809.31;;;17.75;75.50
21706;BME280;11014;53.076;18.208;2022-10-31T11:42:39;101812.03;;;17.75;75.30
21706;BME280;11014;53.076;18.208;2022-10-31T11:45:17;101809.88;;;17.77;75.43
21706;BME280;11014;53.076;18.208;2022-10-31T11:47:49;101809.03;;;17.77;75.30
21706;BME280;11014;53.076;18.208;2022-10-31T11:50:47;101809.38;;;17.81;75.33
21706;BME280;11014;53.076;18.208;2022-10-31T11:53:47;101819.75;;;17.84;74.97
21706;BME280;11014;53.076;18.208;2022-10-31T11:56:18;101825.69;;;17.81;74.87
21706;BME280;11014;53.076;18.208;2022-10-31T11:58:59;101826.19;;;17.77;74.96
21706;BME280;11014;53.076;18.208;2022-10-31T12:01:30;101830.38;;;17.68;74.58
21706;BME280;11014;53.076;18.208;2022-10-31T12:04:04;101823.22;;;17.62;74.81
21706;BME280;11014;53.076;18.208;2022-10-31T12:06:39;101820.00;;;17.65;75.30
21706;BME280;11014;53.076;18.208;2022-10-31T12:09:27;101819.44;;;17.63;75.31
21706;BME280;11014;53.076;18.208;2022-10-31T12:14:53;101822.22;;;17.68;75.29
21706;BME280;11014;53.076;18.208;2022-10-31T12:25:30;101822.22;;;17.68;75.56
21706;BME280;11014;53.076;18.208;2022-10-31T12:37:15;101813.16;;;17.80;75.48
21706;BME280;11014;53.076;18.208;2022-10-31T12:40:18;101809.44;;;17.86;75.26
21706;BME280;11014;53.076;18.208;2022-10-31T12:53:47;101810.66;;;17.95;75.60
21706;BME280;11014;53.076;18.208;2022-10-31T12:59:04;101809.00;;;17.94;75.40
21706;BME280;11014;53.076;18.208;2022-10-31T13:01:39;101807.97;;;17.95;75.16
21706;BME280;11014;53.076;18.208;2022-10-31T13:04:18;101808.59;;;18.02;75.63
21706;BME280;11014;53.076;18.208;2022-10-31T13:07:02;101805.38;;;18.05;75.34
21706;BME280;11014;53.076;18.208;2022-10-31T13:09:33;101799.56;;;18.18;74.75
21706;BME280;11014;53.076;18.208;2022-10-31T13:12:09;101805.19;;;18.11;74.46
21706;BME280;11014;53.076;18.208;2022-10-31T13:14:54;101803.22;;;18.07;74.75
21706;BME280;11014;53.076;18.208;2022-10-31T13:17:33;101791.50;;;18.06;74.60
21706;BME280;11014;53.076;18.208;2022-10-31T13:22:48;101780.47;;;18.13;74.78
21706;BME280;11014;53.076;18.208;2022-10-31T13:25:22;101786.22;;;18.16;75.11
21706;BME280;11014;53.076;18.208;2022-10-31T13:28:02;101788.19;;;18.21;75.16
21706;BME280;11014;53.076;18.208;2022-10-31T13:30:37;101793.94;;;18.24;74.82
21706;BME280;11014;53.076;18.208;2022-10-31T13:33:17;101795.84;;;18.24;74.86
21706;BME280;11014;53.076;18.208;2022-10-31T13:36:29;101793.13;;;18.24;74.59
21706;BME280;11014;53.076;18.208;2022-10-31T13:39:08;101793.94;;;18.24;74.55
21706;BME280;11014;53.076;18.208;2022-10-31T13:44:21;101796.41;;;18.26;74.55
21706;BME280;11014;53.076;18.208;2022-10-31T13:46:55;101799.63;;;18.23;74.44
21706;BME280;11014;53.076;18.208;2022-10-31T13:54:49;101794.78;;;18.25;74.50
21706;BME280;11014;53.076;18.208;2022-10-31T14:00:24;101786.78;;;18.18;74.62
21706;BME280;11014;53.076;18.208;2022-10-31T14:02:56;101785.97;;;18.18;74.75
21706;BME280;11014;53.076;18.208;2022-10-31T14:05:34;101789.75;;;18.17;74.98
21706;BME280;11014;53.076;18.208;2022-10-31T14:08:18;101781.84;;;18.15;74.78
21706;BME280;11014;53.076;18.208;2022-10-31T14:10:53;101788.34;;;18.14;75.15
21706;BME280;11014;53.076;18.208;2022-10-31T14:16:18;101777.19;;;18.11;75.03
21706;BME280;11014;53.076;18.208;2022-10-31T14:19:20;101772.88;;;18.15;74.99
21706;BME280;11014;53.076;18.208;2022-10-31T14:21:56;101769.59;;;18.13;74.49
21706;BME280;11014;53.076;18.208;2022-10-31T14:25:39;101770.91;;;18.10;74.04
21706;BME280;11014;53.076;18.208;2022-10-31T14:32:23;101780.28;;;17.98;74.39
21706;BME280;11014;53.076;18.208;2022-10-31T14:38:38;101771.97;;;17.88;74.73
21706;BME280;11014;53.076;18.208;2022-10-31T14:51:36;101782.66;;;17.94;74.50
21706;BME280;11014;53.076;18.208;2022-10-31T14:54:15;101788.59;;;17.91;74.73
21706;BME280;11014;53.076;18.208;2022-10-31T14:56:50;101782.34;;;17.91;74.86
21706;BME280;11014;53.076;18.208;2022-10-31T14:59:25;101786.63;;;17.87;74.88
21706;BME280;11014;53.076;18.208;2022-10-31T15:02:01;101782.50;;;17.84;74.70
21706;BME280;11014;53.076;18.208;2022-10-31T15:04:38;101776.75;;;17.81;74.79
21706;BME280;11014;53.076;18.208;2022-10-31T15:07:23;101780.53;;;17.80;74.95
21706;BME280;11014;53.076;18.208;2022-10-31T15:09:59;101785.97;;;17.80;75.04
21706;BME280;11014;53.076;18.208;2022-10-31T15:12:30;101788.97;;;17.78;74.94
21706;BME280;11014;53.076;18.208;2022-10-31T15:15:32;101789.25;;;17.82;75.20
21706;BME280;11014;53.076;18.208;2022-10-31T15:18:04;101791.25;;;17.86;74.97
21706;BME280;11014;53.076;18.208;2022-10-31T15:20:41;101792.63;;;17.89;75.10
21706;BME280;11014;53.076;18.208;2022-10-31T15:23:22;101795.34;;;17.89;74.94
21706;BME280;11014;53.076;18.208;2022-10-31T15:26:00;101798.00;;;17.84;74.88
21706;BME280;11014;53.076;18.208;2022-10-31T15:28:30;101795.53;;;17.82;75.19
21706;BME280;11014;53.076;18.208;2022-10-31T15:31:01;101801.78;;;17.83;75.28
21706;BME280;11014;53.076;18.208;2022-10-31T15:33:39;101799.34;;;17.81;75.38
21706;BME280;11014;53.076;18.208;2022-10-31T15:38:57;101802.47;;;17.73;75.27
21706;BME280;11014;53.076;18.208;2022-10-31T15:44:24;101800.47;;;17.68;75.69
21706;BME280;11014;53.076;18.208;2022-10-31T15:47:00;101804.38;;;17.72;75.83
21706;BME280;11014;53.076;18.208;2022-10-31T15:49:34;101806.00;;;17.73;75.65
21706;BME280;11014;53.076;18.208;2022-10-31T15:52:13;101805.44;;;17.71;75.71
21706;BME280;11014;53.076;18.208;2022-10-31T15:54:50;101812.19;;;17.69;75.88
21706;BME280;11014;53.076;18.208;2022-10-31T15:57:19;101820.00;;;17.65;75.60
21706;BME280;11014;53.076;18.208;2022-10-31T15:59:48;101812.34;;;17.62;76.05